Latest Coastal Weather Observations for Warrnambool

IDV60701

Issued at 10:21 am EST Saturday 29 August 2015 (issued every 10 minutes, with the page automatically refreshed every 10 minutes)

About coastal observations | Map of coastal stations | Coastal observations for VIC | Marine services | Other Formats
Station Details ID: 090186 Name: WARRNAMBOOL AIRPORT NDB Lat: -38.29 Lon: 142.45 Height: 70.8 m
Data from the previous 72 hours. | See also: Recent months at Warrnambool
Date/Time
EST
Temp

°C
Wind Pressure Rain
since 9am
mm
Weather Cloud Vis
km
Sea
Height
m
Swell
Dir
 
Speed
knots
Gust
knots
hPa Trend Height
m
Period
s
Dir
29/10:00am 9.8 SSW 13 17 1029.5 - 0.0 - Partly cloudy 10 - - - -
29/09:30am 8.9 S 16 21 1029.6 - 0.0 - Partly cloudy 10 - - - -
29/09:00am 9.0 SSW 12 16 1029.7 - 1.2 - Cloudy 10 - - - -
29/08:30am 8.2 S 10 14 1029.5 - 1.2 - Cloudy 10 - - - -
29/08:00am 7.4 S 9 11 1029.4 - 1.2 - Cloudy 10 - - - -
29/07:30am 7.3 S 10 14 1029.2 - 1.2 - Partly cloudy 10 - - - -
29/07:00am 5.8 S 8 10 1028.9 - 1.2 - Cloudy 10 - - - -
29/06:30am 6.1 S 10 14 1028.7 - 1.2 - Partly cloudy 10 - - - -
29/06:00am 6.6 SSW 9 11 1028.6 - 1.2 Showers Cloudy 10 - - - -
29/05:30am 6.9 SSE 8 10 1028.5 - 1.2 - Cloudy 10 - - - -
29/05:00am 6.8 SSE 7 9 1028.5 - 1.2 - Partly cloudy 10 - - - -
29/04:30am 6.3 SSE 8 10 1028.4 - 1.2 - Partly cloudy 10 - - - -
29/04:00am 5.8 SSE 4 7 1028.3 - 1.2 - Partly cloudy 10 - - - -
29/03:30am 6.3 ESE 3 6 1028.5 - 1.2 - Partly cloudy 10 - - - -
29/03:00am 5.7 SE 5 7 1028.6 - 1.2 - Mostly cloudy 10 - - - -
29/02:30am 6.2 SSE 8 10 1028.8 - 1.2 - Partly cloudy 10 - - - -
29/02:00am 6.2 SSE 8 11 1028.9 - 1.2 - Partly cloudy 10 - - - -
29/01:30am 7.0 SSE 9 12 1029.0 - 1.2 - Cloudy 10 - - - -
29/01:00am 6.8 SE 5 6 1029.1 - 1.2 - Cloudy 10 - - - -
29/12:30am 6.5 SE 4 6 1029.1 - 1.2 - Cloudy 10 - - - -
29/12:00am 6.3 SE 2 5 1029.0 - 1.2 - Cloudy 10 - - - -
 
Date/Time
EST
Temp

°C
Wind Pressure Rain
since 9am
mm
Weather Cloud Vis
km
Sea
Height
m
Swell
Dir
 
Speed
knots
Gust
knots
hPa Trend Height
m
Period
s
Dir
28/11:30pm 6.7 SSE 6 8 1029.1 - 1.2 - Cloudy 10 - - - -
28/11:00pm 7.0 SSE 11 14 1029.2 - 1.2 - Cloudy 10 - - - -
28/10:30pm 6.3 SSE 7 9 1029.1 - 1.2 - Partly cloudy 10 - - - -
28/10:00pm 6.9 SSE 12 16 1029.1 - 1.2 - Partly cloudy 10 - - - -
28/09:30pm 5.6 SSE 8 11 1029.0 - 1.2 - Partly cloudy 10 - - - -
28/09:00pm 5.9 SSE 8 10 1028.9 - 1.2 - Partly cloudy 10 - - - -
28/08:30pm 6.6 SSE 10 14 1028.8 - 1.2 - Partly cloudy 10 - - - -
28/08:00pm 7.2 SSE 9 12 1028.5 - 1.2 - Cloudy 10 - - - -
28/07:30pm 7.8 SSE 10 13 1028.3 - 1.2 - Partly cloudy 10 - - - -
28/07:00pm 7.9 SSE 9 13 1028.2 - 1.2 - Partly cloudy 10 - - - -
28/06:30pm 8.5 SE 8 14 1027.9 - 1.2 - Partly cloudy 10 - - - -
28/06:00pm 8.9 SSE 8 13 1027.7 - 1.2 - Cloudy 10 - - - -
28/05:30pm 9.0 SE 11 16 1027.6 - 1.2 - Partly cloudy 10 - - - -
28/05:00pm 9.4 SSE 14 19 1027.3 - 1.2 - Partly cloudy 10 - - - -
28/04:30pm 9.9 SSE 14 20 1027.1 - 1.2 - Partly cloudy 10 - - - -
28/04:00pm 10.0 SSE 15 22 1026.9 - 1.2 - Partly cloudy 10 - - - -
28/03:30pm 10.0 SSE 16 20 1026.8 - 1.2 - Partly cloudy 10 - - - -
28/03:00pm 9.7 SE 12 16 1026.8 - 1.2 Rain Cloudy 10 - - - -
28/02:58pm 9.5 SE 11 15 1026.8 - 1.2 - Partly cloudy 10 - - - -
28/02:49pm 9.3 SE 12 16 1026.9 - 1.2 - Partly cloudy 6 - - - -
28/02:30pm 9.3 SE 15 23 1026.9 - 1.0 - Partly cloudy 3 - - - -
28/02:12pm 9.7 SSE 13 17 1026.9 - 0.4 - Partly cloudy 3 - - - -
28/02:09pm 10.1 SSE 13 17 1026.9 - 0.2 - Partly cloudy 5 - - - -
28/02:04pm 10.2 SE 14 18 1026.8 - 0.2 - Partly cloudy 6 - - - -
28/02:00pm 10.0 SE 15 20 1026.8 - 0.2 - Partly cloudy 7 - - - -
28/01:47pm 10.9 S 16 21 1026.8 - 0.0 - Partly cloudy 10 - - - -
28/01:30pm 11.4 SW 13 19 1026.8 - 0.0 - Partly cloudy 10 - - - -
28/01:27pm 11.4 SW 10 17 1026.9 - 0.0 - Partly cloudy 10 - - - -
28/01:11pm 10.5 SW 11 14 1027.2 - 0.0 - Partly cloudy 5 - - - -
28/01:00pm 11.1 SW 11 13 1027.3 - 0.0 - Partly cloudy 6 - - - -
28/12:30pm 11.2 S 12 15 1027.6 - 0.0 - Partly cloudy 10 - - - -
28/12:15pm 12.0 S 6 10 1027.7 - 0.0 - Partly cloudy 10 - - - -
28/12:00pm 10.6 S 8 11 1027.9 - 0.0 Drizzle Cloudy 5 - - - -
28/11:57am 10.9 S 9 13 1028.0 - 0.0 - Partly cloudy 5 - - - -
28/11:30am 12.0 SSW 11 15 1028.0 - 0.0 - Partly cloudy 10 - - - -
28/11:00am 12.4 SSE 5 7 1028.0 - 0.0 - Partly cloudy 10 - - - -
28/10:30am 10.2 S 10 17 1028.3 - 0.0 - Partly cloudy 10 - - - -
28/10:00am 10.7 S 12 16 1028.2 - 0.0 - Partly cloudy 10 - - - -
28/09:30am 11.2 S 10 12 1028.0 - 0.0 - Cloudy 10 - - - -
28/09:00am 10.7 S 8 12 1028.0 - 0.2 - Cloudy 10 - - - -
28/08:30am 9.9 SSE 10 13 1027.8 - 0.2 - Partly cloudy 10 - - - -
28/08:00am 9.5 SSW 7 8 1027.5 - 0.2 - Cloudy 10 - - - -
28/07:30am 9.0 SSW 6 8 1027.4 - 0.2 - Cloudy 10 - - - -
28/07:00am 9.4 S 11 15 1027.1 - 0.2 - Cloudy 10 - - - -
28/06:30am 8.8 S 10 13 1026.9 - 0.2 - Cloudy 10 - - - -
28/06:00am 9.3 S 12 16 1026.8 - 0.2 - Cloudy 10 - - - -
28/05:30am 9.2 SSW 10 13 1026.3 - 0.2 - Cloudy 10 - - - -
28/05:00am 8.7 S 9 10 1026.2 - 0.2 - Partly cloudy 10 - - - -
28/04:30am 9.1 S 9 11 1026.2 - 0.2 - Cloudy 10 - - - -
28/04:00am 8.4 S 8 10 1026.1 - 0.2 - Partly cloudy 10 - - - -
28/03:30am 8.1 S 10 12 1026.2 - 0.2 - Partly cloudy 10 - - - -
28/03:00am 8.8 S 13 16 1026.3 - 0.2 - Mostly cloudy 10 - - - -
28/02:30am 9.4 S 11 16 1026.4 - 0.2 - Partly cloudy 10 - - - -
28/02:00am 9.1 S 11 14 1026.4 - 0.2 - Partly cloudy 10 - - - -
28/01:30am 9.4 S 11 15 1026.4 - 0.2 - Partly cloudy 10 - - - -
28/01:00am 10.1 S 13 16 1026.3 - 0.2 - Partly cloudy 10 - - - -
28/12:30am 10.1 S 12 15 1026.2 - 0.2 - Partly cloudy 10 - - - -
28/12:00am 9.9 S 9 14 1026.0 - 0.2 Rain Cloudy 10 - - - -
 
Date/Time
EST
Temp

°C
Wind Pressure Rain
since 9am
mm
Weather Cloud Vis
km
Sea
Height
m
Swell
Dir
 
Speed
knots
Gust
knots
hPa Trend Height
m
Period
s
Dir
27/11:30pm 10.1 SSE 11 15 1026.2 - 0.2 - Partly cloudy 10 - - - -
27/11:00pm 10.2 S 11 16 1026.2 - 0.0 - Partly cloudy 10 - - - -
27/10:30pm 9.9 S 10 13 1026.1 - 0.0 - Partly cloudy 10 - - - -
27/10:00pm 10.1 S 11 14 1026.0 - 0.0 - Partly cloudy 10 - - - -
27/09:30pm 10.5 S 10 14 1026.0 - 0.0 - Partly cloudy 10 - - - -
27/09:00pm 10.8 S 12 16 1025.7 - 0.0 - Cloudy 10 - - - -
27/08:30pm 10.7 S 13 17 1025.5 - 0.0 - Partly cloudy 10 - - - -
27/08:00pm 10.5 S 12 15 1025.1 - 0.0 - Partly cloudy 10 - - - -
27/07:42pm 10.1 SSE 12 16 1025.0 - 0.0 - Partly cloudy 10 - - - -
27/07:30pm 10.1 SSE 13 18 1025.0 - 0.0 - Partly cloudy - - - - -
27/07:10pm 10.5 SSE 15 20 1024.7 - 0.0 - Partly cloudy - - - - -
27/07:00pm 10.9 SSE 16 23 1024.6 - 0.0 - Partly cloudy - - - - -
27/06:30pm 10.7 SSE 15 21 1024.2 - 0.0 - Partly cloudy - - - - -
27/06:19pm 11.0 S 17 23 1024.1 - 0.0 - Partly cloudy - - - - -
27/06:00pm 11.3 S 19 23 1023.7 - 0.0 - Cloudy - - - - -
27/05:30pm 11.6 S 17 22 1023.3 - 0.0 - Partly cloudy - - - - -
27/05:00pm 11.9 S 16 23 1022.9 - 0.0 - Partly cloudy - - - - -
27/04:30pm 12.0 S 17 23 1022.4 - 0.0 - Partly cloudy - - - - -
27/04:00pm 13.2 SSW 15 17 1022.2 - 0.0 - Partly cloudy - - - - -
27/03:30pm 12.9 SSW 15 19 1022.0 - 0.0 - Partly cloudy - - - - -
27/03:08pm 12.7 SSW 15 19 1021.9 - 0.0 - Partly cloudy - - - - -
27/03:00pm 13.0 SSW 14 18 1022.0 - 0.0 - Cloudy - - - - -
27/02:30pm 13.7 SSW 13 15 1022.1 - 0.0 - Partly cloudy 10 - - - -
27/02:00pm 13.6 SSW 13 16 1022.1 - 0.0 - Partly cloudy 10 - - - -
27/01:30pm 13.5 SSW 13 16 1022.3 - 0.0 - Partly cloudy 10 - - - -
27/01:00pm 13.3 SSW 12 15 1022.4 - 0.0 - Partly cloudy 10 - - - -
27/12:30pm 13.7 SSW 11 15 1022.5 - 0.0 - Partly cloudy 10 - - - -
27/12:00pm 13.3 SW 10 12 1022.7 - 0.0 - Cloudy 10 - - - -
27/11:39am 13.0 SW 10 14 1022.9 - 0.0 - Partly cloudy 10 - - - -
27/11:30am 13.0 SW 9 11 1023.0 - 0.0 - Partly cloudy 10 - - - -
27/11:18am 13.6 SW 8 11 1023.1 - 0.0 - Partly cloudy 10 - - - -
27/11:02am 12.4 SW 9 11 1023.0 - 0.0 - Partly cloudy 10 - - - -
27/11:00am 12.6 SW 9 12 1023.0 - 0.0 - Partly cloudy 10 - - - -
27/10:34am 12.7 WSW 9 11 1023.0 - 0.0 - Partly cloudy 10 - - - -
27/10:30am 12.7 WSW 9 11 1023.0 - 0.0 - Partly cloudy 10 - - - -
27/10:00am 11.9 WSW 8 11 1023.0 - 0.0 - - 10 - - - -
27/09:30am 10.5 WNW 7 10 1023.0 - 0.0 - - 10 - - - -
27/09:00am 9.8 WNW 7 10 1022.8 - 0.0 - - 10 - - - -
27/08:30am 8.2 NW 6 8 1022.9 - 0.0 - - 10 - - - -
27/08:06am 7.6 NW 8 10 1022.7 - 0.0 - Partly cloudy 8 - - - -
27/08:00am 7.4 NW 9 11 1022.6 - 0.0 - Partly cloudy 7 - - - -
27/07:30am 7.4 NW 7 8 1022.3 - 0.0 - Cloudy 2 - - - -
27/07:22am 7.3 NW 7 9 1022.3 - 0.0 - Cloudy 1 - - - -
27/07:12am 7.1 NW 7 8 1022.1 - 0.0 - Cloudy 0.9 - - - -
27/07:00am 6.5 WNW 5 7 1021.8 - 0.0 - Partly cloudy 3 - - - -
27/06:30am 7.8 WNW 6 7 1021.6 - 0.0 - Partly cloudy 4 - - - -
27/06:16am 7.8 WNW 6 8 1021.5 - 0.0 - Cloudy 5 - - - -
27/06:00am 7.7 WNW 5 7 1021.5 - 0.0 - Cloudy 8 - - - -
27/05:45am 7.6 NW 7 9 1021.5 - 0.0 - Partly cloudy 8 - - - -
27/05:30am 7.8 NW 6 8 1021.4 - 0.0 - Partly cloudy 9 - - - -
27/05:00am 7.8 WNW 8 9 1021.1 - 0.0 - Cloudy 10 - - - -
27/04:30am 8.3 WNW 8 10 1021.0 - 0.0 - Cloudy 10 - - - -
27/04:00am 8.1 WNW 9 10 1021.2 - 0.0 - Partly cloudy 10 - - - -
27/03:30am 7.8 WNW 6 8 1021.3 - 0.0 - Partly cloudy 10 - - - -
27/03:00am 8.2 N 4 5 1021.5 - 0.0 - Cloudy 10 - - - -
27/02:30am 8.1 CALM 0 2 1021.7 - 0.0 - Cloudy 10 - - - -
27/02:00am 8.6 NNW 5 6 1021.8 - 0.0 - Cloudy 10 - - - -
27/01:30am 9.0 N 7 8 1022.0 - 0.0 - Cloudy 10 - - - -
27/01:00am 8.5 N 6 7 1022.3 - 0.0 - Partly cloudy 10 - - - -
27/12:30am 8.7 N 7 7 1022.5 - 0.0 - Cloudy 10 - - - -
27/12:00am 8.4 N 5 6 1022.6 - 0.0 - Cloudy 10 - - - -
 
Date/Time
EST
Temp

°C
Wind Pressure Rain
since 9am
mm
Weather Cloud Vis
km
Sea
Height
m
Swell
Dir
 
Speed
knots
Gust
knots
hPa Trend Height
m
Period
s
Dir
26/11:30pm 8.8 N 5 7 1022.9 - 0.0 - Cloudy 10 - - - -
26/11:00pm 9.1 NNE 6 7 1023.1 - 0.0 - Cloudy 10 - - - -
26/10:30pm 8.9 NNE 5 6 1023.3 - 0.0 - Cloudy 10 - - - -
26/10:00pm 9.2 NNE 5 8 1023.3 - 0.0 - Partly cloudy - - - - -
26/09:30pm 8.9 NE 5 6 1023.3 - 0.0 - Cloudy - - - - -
26/09:00pm 9.7 NE 6 7 1023.4 - 0.0 - Cloudy - - - - -
26/08:30pm 10.6 NE 5 6 1023.4 - 0.0 - Partly cloudy - - - - -
26/08:00pm 10.6 ENE 4 5 1023.4 - 0.0 - Partly cloudy - - - - -
26/07:30pm 10.8 E 3 4 1023.4 - 0.0 - Cloudy - - - - -
26/07:00pm 11.1 E 4 5 1023.2 - 0.0 - Cloudy - - - - -
26/06:30pm 11.4 E 5 7 1023.0 - 0.0 - Partly cloudy - - - - -
26/06:00pm 11.7 E 4 5 1023.1 - 0.0 - Cloudy - - - - -
26/05:30pm 12.2 E 5 6 1022.8 - 0.0 - Cloudy - - - - -
26/05:00pm 12.5 ENE 4 5 1022.8 - 0.0 - Partly cloudy - - - - -
26/04:30pm 12.9 ENE 4 6 1022.7 - 0.0 - Partly cloudy - - - - -
26/04:00pm 13.1 E 6 8 1022.6 - 0.0 - Cloudy - - - - -
26/03:30pm 13.2 ENE 6 8 1022.6 - 0.0 - Partly cloudy 10 - - - -
26/03:00pm 13.3 ENE 5 7 1022.9 - 0.0 - Cloudy 10 - - - -
26/02:30pm 13.5 NE 6 9 1023.2 - 0.0 - Partly cloudy 10 - - - -
26/02:00pm 13.7 E 7 11 1023.3 - 0.0 - Partly cloudy 10 - - - -
26/01:30pm 13.2 E 7 9 1023.7 - 0.0 - Partly cloudy 10 - - - -
26/01:00pm 12.6 E 8 11 1023.8 - 0.0 - Partly cloudy 10 - - - -
26/12:30pm 12.6 ENE 7 12 1024.3 - 0.0 - Partly cloudy 10 - - - -
26/12:00pm 12.2 ENE 9 13 1025.1 - 0.0 - Cloudy 10 - - - -
26/11:41am 12.0 ENE 10 15 1025.5 - 0.0 - Cloudy 10 - - - -
26/11:30am 11.4 E 10 14 1025.6 - 0.0 - Partly cloudy 10 - - - -
26/11:09am 12.0 ENE 10 15 1025.6 - 0.0 - Partly cloudy 10 - - - -
26/11:06am 11.2 ENE 11 16 1025.6 - 0.0 - Partly cloudy 10 - - - -
26/11:00am 11.3 ENE 10 16 1025.7 - 0.0 - Partly cloudy 10 - - - -
26/10:35am 10.9 ENE 10 14 1026.0 - 0.0 - Partly cloudy 10 - - - -
26/10:30am 10.5 ENE 9 13 1026.0 - 0.0 - Partly cloudy 10 - - - -

Other Formats:

Comma delimited format used in spreadsheet applications
http://www.bom.gov.au/fwo/IDV60701/IDV60701.94837.axf

JavaScript Object Notation format (JSON) in row-major order
http://www.bom.gov.au/fwo/IDV60701/IDV60701.94837.json